LTCF

Kars Airport

Kars, Turkey
TAF LTCF 181040Z 1812/1821 22009KT 9999 SCT040 TEMPO 1812/1815 -TSRA FEW030CB BKN035 BECMG 1816/1818 CAVOK
Issued Valid From Valid To
Jun-18 @ 10:40 UTC
(3 hours ago)
Jun-18 @ 12:00 UTC
(an hour ago)
Jun-18 @ 21:00 UTC
(in 8 hours)
Jun-18 @ 12:00 to Jun-18 @ 16:00
TAF LTCF 181040Z 1812/1821 22009KT 9999 SCT040
Wind Visibility Clouds
220° at 9 knots 10,000+ meters
  • Scattered at 4,000' AGL
Temporary Jun-18 @ 12:00 to Jun-18 @ 15:00
TEMPO 1812/1815 -TSRA FEW030CB BKN035
Clouds Conditions
  • Few at 3,000' AGL
  • Broken at 3,500' AGL
  • Light Thunderstorm
  • Light Rain
Becoming Jun-18 @ 16:00 to Jun-18 @ 21:00
BECMG 1816/1818 CAVOK
Wind Visibility Clouds Conditions
220° at 9 knots 10,000+ meters
  • No significant clouds
TAF LTCF 181040Z 1812/1821 22009KT 9999 SCT040 TEMPO 1812/1815 -TSRA FEW030CB BKN035 BECMG 1816/1818 CAVOK
Issued Jun-18 @ 10:40 UTC
(3 hours ago)
Valid From Jun-18 @ 12:00 UTC
(an hour ago)
Valid To Jun-18 @ 21:00 UTC
(in 8 hours)
Jun-18 @ 12:00 - Jun-18 @ 16:00
Wind Visibility
220° at 9 knots 10,000+ meters
Clouds
  • Scattered at 4,000' AGL
Temporary Jun-18 @ 12:00 - Jun-18 @ 15:00
Clouds
  • Few at 3,000' AGL
  • Broken at 3,500' AGL
Conditions
  • Light Thunderstorm
  • Light Rain
Becoming Jun-18 @ 16:00 - Jun-18 @ 21:00
Wind Visibility
220° at 9 knots 10,000+ meters
Clouds
  • No significant clouds
Conditions